ěÝzenÝ letovÚho provozu ╚eskÚ republiky
Letiste: LKCV Aktualizace: 21.01.2020 22:00:26  UTC
 METAR LKCV 21.01. 22:00 ...
METAR LKCV 212200Z 25003KT 8000 OVC008 M02/M04 Q1038 NOSIG RMK GRN GRN=
 TAF LKCV 21.01. 17:00 ...
TAF LKCV 211700Z 2118/2218 20004KT 6000 OVC008      BECMG 2118/2121 3000 BR OVC005      TEMPO 2120/2207 0400 FZFG OVC001      BECMG 2210/2213 32010KT 9999 BKN025=